sensor_id;sensor_type;location;lat;lon;timestamp;temperature;humidity
7588;DHT22;3835;48.850;8.938;2023-04-01T00:00:52;7.40;99.90
7588;DHT22;3835;48.850;8.938;2023-04-01T00:03:21;7.50;99.90
7588;DHT22;3835;48.850;8.938;2023-04-01T00:05:49;7.50;99.90
7588;DHT22;3835;48.850;8.938;2023-04-01T00:08:19;7.60;99.90
7588;DHT22;3835;48.850;8.938;2023-04-01T00:10:47;7.70;99.90
7588;DHT22;3835;48.850;8.938;2023-04-01T00:13:15;7.70;99.90
7588;DHT22;3835;48.850;8.938;2023-04-01T00:15:44;7.80;99.90
7588;DHT22;3835;48.850;8.938;2023-04-01T00:18:12;7.80;99.90
7588;DHT22;3835;48.850;8.938;2023-04-01T00:20:43;7.80;99.90
7588;DHT22;3835;48.850;8.938;2023-04-01T00:23:11;7.80;99.90
7588;DHT22;3835;48.850;8.938;2023-04-01T00:25:40;7.80;99.90
7588;DHT22;3835;48.850;8.938;2023-04-01T00:28:08;7.70;99.90
7588;DHT22;3835;48.850;8.938;2023-04-01T00:30:36;7.70;99.90
7588;DHT22;3835;48.850;8.938;2023-04-01T00:33:04;7.70;99.90
7588;DHT22;3835;48.850;8.938;2023-04-01T00:35:31;7.70;99.90
7588;DHT22;3835;48.850;8.938;2023-04-01T00:38:00;7.70;99.90
7588;DHT22;3835;48.850;8.938;2023-04-01T00:40:31;7.80;99.90
7588;DHT22;3835;48.850;8.938;2023-04-01T00:43:01;7.80;99.90
7588;DHT22;3835;48.850;8.938;2023-04-01T00:45:33;7.80;99.90
7588;DHT22;3835;48.850;8.938;2023-04-01T00:48:05;7.90;99.90
7588;DHT22;3835;48.850;8.938;2023-04-01T00:50:35;8.00;99.90
7588;DHT22;3835;48.850;8.938;2023-04-01T00:53:04;8.00;99.90
7588;DHT22;3835;48.850;8.938;2023-04-01T00:55:35;8.10;99.90
7588;DHT22;3835;48.850;8.938;2023-04-01T00:58:08;8.20;99.90
7588;DHT22;3835;48.850;8.938;2023-04-01T01:00:38;8.30;99.90
7588;DHT22;3835;48.850;8.938;2023-04-01T01:03:06;8.30;99.90
7588;DHT22;3835;48.850;8.938;2023-04-01T01:08:58;8.30;99.90
7588;DHT22;3835;48.850;8.938;2023-04-01T01:11:35;8.30;99.90
7588;DHT22;3835;48.850;8.938;2023-04-01T01:14:10;8.30;99.90
7588;DHT22;3835;48.850;8.938;2023-04-01T01:16:44;8.20;99.90
7588;DHT22;3835;48.850;8.938;2023-04-01T01:19:29;8.20;99.90
7588;DHT22;3835;48.850;8.938;2023-04-01T01:22:22;8.20;99.90
7588;DHT22;3835;48.850;8.938;2023-04-01T01:25:12;8.20;99.90
7588;DHT22;3835;48.850;8.938;2023-04-01T01:27:47;8.20;99.90
7588;DHT22;3835;48.850;8.938;2023-04-01T01:30:30;8.20;99.90
7588;DHT22;3835;48.850;8.938;2023-04-01T01:33:15;8.20;99.90
7588;DHT22;3835;48.850;8.938;2023-04-01T01:35:49;8.30;99.90
7588;DHT22;3835;48.850;8.938;2023-04-01T01:38:19;8.40;99.90
7588;DHT22;3835;48.850;8.938;2023-04-01T01:40:50;8.40;99.90
7588;DHT22;3835;48.850;8.938;2023-04-01T01:43:24;8.40;99.90
7588;DHT22;3835;48.850;8.938;2023-04-01T01:45:54;8.30;99.90
7588;DHT22;3835;48.850;8.938;2023-04-01T01:48:24;8.30;99.90
7588;DHT22;3835;48.850;8.938;2023-04-01T01:50:53;8.30;99.90
7588;DHT22;3835;48.850;8.938;2023-04-01T01:53:21;8.30;99.90
7588;DHT22;3835;48.850;8.938;2023-04-01T01:55:49;8.30;99.90
7588;DHT22;3835;48.850;8.938;2023-04-01T01:58:20;8.30;99.90
7588;DHT22;3835;48.850;8.938;2023-04-01T02:00:52;8.20;99.90
7588;DHT22;3835;48.850;8.938;2023-04-01T02:03:22;8.20;99.90
7588;DHT22;3835;48.850;8.938;2023-04-01T02:05:53;8.20;99.90
7588;DHT22;3835;48.850;8.938;2023-04-01T02:08:26;8.20;99.90
7588;DHT22;3835;48.850;8.938;2023-04-01T02:10:59;8.10;99.90
7588;DHT22;3835;48.850;8.938;2023-04-01T02:13:31;8.10;99.90
7588;DHT22;3835;48.850;8.938;2023-04-01T02:16:05;8.20;99.90
7588;DHT22;3835;48.850;8.938;2023-04-01T02:18:36;8.20;99.90
7588;DHT22;3835;48.850;8.938;2023-04-01T02:21:07;8.20;99.90
7588;DHT22;3835;48.850;8.938;2023-04-01T02:23:36;8.10;99.90
7588;DHT22;3835;48.850;8.938;2023-04-01T02:26:06;8.10;99.90
7588;DHT22;3835;48.850;8.938;2023-04-01T02:28:37;8.10;99.90
7588;DHT22;3835;48.850;8.938;2023-04-01T02:31:07;8.10;99.90
7588;DHT22;3835;48.850;8.938;2023-04-01T02:33:37;8.10;99.90
7588;DHT22;3835;48.850;8.938;2023-04-01T02:36:11;8.00;99.90
7588;DHT22;3835;48.850;8.938;2023-04-01T02:38:40;8.10;99.90
7588;DHT22;3835;48.850;8.938;2023-04-01T02:41:08;8.10;99.90
7588;DHT22;3835;48.850;8.938;2023-04-01T02:43:35;8.00;99.90
7588;DHT22;3835;48.850;8.938;2023-04-01T02:46:02;8.00;99.90
7588;DHT22;3835;48.850;8.938;2023-04-01T02:48:29;8.00;99.90
7588;DHT22;3835;48.850;8.938;2023-04-01T02:50:56;8.00;99.90
7588;DHT22;3835;48.850;8.938;2023-04-01T02:53:24;8.00;99.90
7588;DHT22;3835;48.850;8.938;2023-04-01T02:55:51;7.90;99.90
7588;DHT22;3835;48.850;8.938;2023-04-01T02:58:18;7.80;99.90
7588;DHT22;3835;48.850;8.938;2023-04-01T03:00:46;7.80;99.90
7588;DHT22;3835;48.850;8.938;2023-04-01T03:03:13;7.80;99.90
7588;DHT22;3835;48.850;8.938;2023-04-01T03:05:41;7.80;99.90
7588;DHT22;3835;48.850;8.938;2023-04-01T03:08:10;7.80;99.90
7588;DHT22;3835;48.850;8.938;2023-04-01T03:10:41;7.80;99.90
7588;DHT22;3835;48.850;8.938;2023-04-01T03:13:08;7.80;99.90
7588;DHT22;3835;48.850;8.938;2023-04-01T03:15:35;7.70;99.90
7588;DHT22;3835;48.850;8.938;2023-04-01T03:18:01;7.70;99.90
7588;DHT22;3835;48.850;8.938;2023-04-01T03:20:28;7.70;99.90
7588;DHT22;3835;48.850;8.938;2023-04-01T03:22:55;7.60;99.90
7588;DHT22;3835;48.850;8.938;2023-04-01T03:25:22;7.60;99.90
7588;DHT22;3835;48.850;8.938;2023-04-01T03:27:50;7.60;99.90
7588;DHT22;3835;48.850;8.938;2023-04-01T03:30:17;7.50;99.90
7588;DHT22;3835;48.850;8.938;2023-04-01T03:32:44;7.40;99.90
7588;DHT22;3835;48.850;8.938;2023-04-01T03:35:11;7.30;99.90
7588;DHT22;3835;48.850;8.938;2023-04-01T03:37:38;7.30;99.90
7588;DHT22;3835;48.850;8.938;2023-04-01T03:40:05;7.30;99.90
7588;DHT22;3835;48.850;8.938;2023-04-01T03:42:32;7.30;99.90
7588;DHT22;3835;48.850;8.938;2023-04-01T03:45:00;7.30;99.90
7588;DHT22;3835;48.850;8.938;2023-04-01T03:47:28;7.30;99.90
7588;DHT22;3835;48.850;8.938;2023-04-01T03:49:55;7.30;99.90
7588;DHT22;3835;48.850;8.938;2023-04-01T03:52:22;7.20;99.90
7588;DHT22;3835;48.850;8.938;2023-04-01T03:54:48;7.20;99.90
7588;DHT22;3835;48.850;8.938;2023-04-01T03:57:15;7.20;99.90
7588;DHT22;3835;48.850;8.938;2023-04-01T03:59:42;7.20;99.90
7588;DHT22;3835;48.850;8.938;2023-04-01T04:02:10;7.20;99.90
7588;DHT22;3835;48.850;8.938;2023-04-01T04:04:37;7.20;99.90
7588;DHT22;3835;48.850;8.938;2023-04-01T04:07:04;7.20;99.90
7588;DHT22;3835;48.850;8.938;2023-04-01T04:09:31;7.30;99.90
7588;DHT22;3835;48.850;8.938;2023-04-01T04:11:58;7.30;99.90
7588;DHT22;3835;48.850;8.938;2023-04-01T04:14:25;7.40;99.90
7588;DHT22;3835;48.850;8.938;2023-04-01T04:16:52;7.50;99.90
7588;DHT22;3835;48.850;8.938;2023-04-01T04:19:20;7.50;99.90
7588;DHT22;3835;48.850;8.938;2023-04-01T04:21:47;7.50;99.90
7588;DHT22;3835;48.850;8.938;2023-04-01T04:24:14;7.50;99.90
7588;DHT22;3835;48.850;8.938;2023-04-01T04:26:40;7.50;99.90
7588;DHT22;3835;48.850;8.938;2023-04-01T04:29:07;7.40;99.90
7588;DHT22;3835;48.850;8.938;2023-04-01T04:31:34;7.40;99.90
7588;DHT22;3835;48.850;8.938;2023-04-01T04:34:01;7.40;99.90
7588;DHT22;3835;48.850;8.938;2023-04-01T04:36:29;7.40;99.90
7588;DHT22;3835;48.850;8.938;2023-04-01T04:38:56;7.40;99.90
7588;DHT22;3835;48.850;8.938;2023-04-01T04:41:23;7.30;99.90
7588;DHT22;3835;48.850;8.938;2023-04-01T04:43:52;7.30;99.90
7588;DHT22;3835;48.850;8.938;2023-04-01T04:46:19;7.20;99.90
7588;DHT22;3835;48.850;8.938;2023-04-01T04:48:46;7.20;99.90
7588;DHT22;3835;48.850;8.938;2023-04-01T04:51:14;7.10;99.90
7588;DHT22;3835;48.850;8.938;2023-04-01T04:53:43;7.00;99.90
7588;DHT22;3835;48.850;8.938;2023-04-01T04:56:10;7.00;99.90
7588;DHT22;3835;48.850;8.938;2023-04-01T04:58:37;6.90;99.90
7588;DHT22;3835;48.850;8.938;2023-04-01T05:01:09;6.90;99.90
7588;DHT22;3835;48.850;8.938;2023-04-01T05:03:36;7.00;99.90
7588;DHT22;3835;48.850;8.938;2023-04-01T05:06:03;7.00;99.90
7588;DHT22;3835;48.850;8.938;2023-04-01T05:08:30;7.00;99.90
7588;DHT22;3835;48.850;8.938;2023-04-01T05:10:59;7.00;99.90
7588;DHT22;3835;48.850;8.938;2023-04-01T05:13:26;7.00;99.90
7588;DHT22;3835;48.850;8.938;2023-04-01T05:15:53;7.00;99.90
7588;DHT22;3835;48.850;8.938;2023-04-01T05:18:20;7.00;99.90
7588;DHT22;3835;48.850;8.938;2023-04-01T05:20:47;7.00;99.90
7588;DHT22;3835;48.850;8.938;2023-04-01T05:23:15;7.10;99.90
7588;DHT22;3835;48.850;8.938;2023-04-01T05:25:42;7.20;99.90
7588;DHT22;3835;48.850;8.938;2023-04-01T05:28:10;7.40;99.90
7588;DHT22;3835;48.850;8.938;2023-04-01T05:30:39;7.40;99.90
7588;DHT22;3835;48.850;8.938;2023-04-01T05:33:07;7.40;99.90
7588;DHT22;3835;48.850;8.938;2023-04-01T05:35:34;7.40;99.90
7588;DHT22;3835;48.850;8.938;2023-04-01T05:38:01;7.40;99.90
7588;DHT22;3835;48.850;8.938;2023-04-01T05:40:27;7.50;99.90
7588;DHT22;3835;48.850;8.938;2023-04-01T05:42:54;7.60;99.90
7588;DHT22;3835;48.850;8.938;2023-04-01T05:45:23;7.70;99.90
7588;DHT22;3835;48.850;8.938;2023-04-01T05:47:49;7.80;99.90
7588;DHT22;3835;48.850;8.938;2023-04-01T05:50:16;7.90;99.90
7588;DHT22;3835;48.850;8.938;2023-04-01T05:52:43;7.90;99.90
7588;DHT22;3835;48.850;8.938;2023-04-01T05:55:11;8.10;99.90
7588;DHT22;3835;48.850;8.938;2023-04-01T05:57:37;8.20;99.90
7588;DHT22;3835;48.850;8.938;2023-04-01T06:00:05;8.20;99.90
7588;DHT22;3835;48.850;8.938;2023-04-01T06:02:34;8.40;99.90
7588;DHT22;3835;48.850;8.938;2023-04-01T06:05:09;8.50;99.90
7588;DHT22;3835;48.850;8.938;2023-04-01T06:07:37;8.50;99.90
7588;DHT22;3835;48.850;8.938;2023-04-01T06:10:12;8.50;99.90
7588;DHT22;3835;48.850;8.938;2023-04-01T06:12:50;8.60;99.90
7588;DHT22;3835;48.850;8.938;2023-04-01T06:15:25;8.60;99.90
7588;DHT22;3835;48.850;8.938;2023-04-01T06:18:11;8.60;99.90
7588;DHT22;3835;48.850;8.938;2023-04-01T06:20:44;8.70;99.90
7588;DHT22;3835;48.850;8.938;2023-04-01T06:23:23;8.70;99.90
7588;DHT22;3835;48.850;8.938;2023-04-01T06:26:14;8.70;99.90
7588;DHT22;3835;48.850;8.938;2023-04-01T06:29:12;8.70;99.90
7588;DHT22;3835;48.850;8.938;2023-04-01T06:35:00;8.50;99.90
7588;DHT22;3835;48.850;8.938;2023-04-01T06:37:45;8.50;99.90
7588;DHT22;3835;48.850;8.938;2023-04-01T06:43:27;8.40;99.90
7588;DHT22;3835;48.850;8.938;2023-04-01T06:45:58;8.40;99.90
7588;DHT22;3835;48.850;8.938;2023-04-01T06:51:27;8.50;99.90
7588;DHT22;3835;48.850;8.938;2023-04-01T06:54:03;8.50;99.90
7588;DHT22;3835;48.850;8.938;2023-04-01T06:56:32;8.60;99.90
7588;DHT22;3835;48.850;8.938;2023-04-01T06:59:02;8.60;99.90
7588;DHT22;3835;48.850;8.938;2023-04-01T07:01:35;8.60;99.90
7588;DHT22;3835;48.850;8.938;2023-04-01T07:04:06;8.70;99.90
7588;DHT22;3835;48.850;8.938;2023-04-01T07:06:40;8.80;99.90
7588;DHT22;3835;48.850;8.938;2023-04-01T07:09:13;8.70;99.90
7588;DHT22;3835;48.850;8.938;2023-04-01T07:11:40;8.70;99.90
7588;DHT22;3835;48.850;8.938;2023-04-01T07:14:13;8.60;99.90
7588;DHT22;3835;48.850;8.938;2023-04-01T07:16:44;8.60;99.90
7588;DHT22;3835;48.850;8.938;2023-04-01T07:19:18;8.70;99.90
7588;DHT22;3835;48.850;8.938;2023-04-01T07:21:49;8.70;99.90
7588;DHT22;3835;48.850;8.938;2023-04-01T07:24:23;8.80;99.90
7588;DHT22;3835;48.850;8.938;2023-04-01T07:26:54;8.70;99.90
7588;DHT22;3835;48.850;8.938;2023-04-01T07:29:22;8.70;99.90
7588;DHT22;3835;48.850;8.938;2023-04-01T07:32:13;8.80;99.90
7588;DHT22;3835;48.850;8.938;2023-04-01T07:34:50;8.90;99.90
7588;DHT22;3835;48.850;8.938;2023-04-01T07:37:27;9.00;99.90
7588;DHT22;3835;48.850;8.938;2023-04-01T07:40:02;9.10;99.90
7588;DHT22;3835;48.850;8.938;2023-04-01T07:42:36;9.20;99.90
7588;DHT22;3835;48.850;8.938;2023-04-01T07:45:11;9.50;99.90
7588;DHT22;3835;48.850;8.938;2023-04-01T07:47:54;9.70;99.90
7588;DHT22;3835;48.850;8.938;2023-04-01T07:50:26;9.80;99.90
7588;DHT22;3835;48.850;8.938;2023-04-01T07:53:02;9.80;99.90
7588;DHT22;3835;48.850;8.938;2023-04-01T07:55:39;9.80;99.90
7588;DHT22;3835;48.850;8.938;2023-04-01T07:58:14;9.90;99.90
7588;DHT22;3835;48.850;8.938;2023-04-01T08:00:48;9.80;99.90
7588;DHT22;3835;48.850;8.938;2023-04-01T08:03:33;9.80;99.90
7588;DHT22;3835;48.850;8.938;2023-04-01T08:06:08;9.80;99.90
7588;DHT22;3835;48.850;8.938;2023-04-01T08:08:48;9.80;99.90
7588;DHT22;3835;48.850;8.938;2023-04-01T08:11:27;9.70;99.90
7588;DHT22;3835;48.850;8.938;2023-04-01T08:14:06;9.80;99.90
7588;DHT22;3835;48.850;8.938;2023-04-01T08:16:41;9.70;99.90
7588;DHT22;3835;48.850;8.938;2023-04-01T08:19:20;9.80;99.90
7588;DHT22;3835;48.850;8.938;2023-04-01T08:21:51;9.80;99.90
7588;DHT22;3835;48.850;8.938;2023-04-01T08:24:27;9.80;99.90
7588;DHT22;3835;48.850;8.938;2023-04-01T08:26:58;9.70;99.90
7588;DHT22;3835;48.850;8.938;2023-04-01T08:29:32;9.40;99.90
7588;DHT22;3835;48.850;8.938;2023-04-01T08:32:05;9.10;99.90
7588;DHT22;3835;48.850;8.938;2023-04-01T08:34:38;8.90;99.90
7588;DHT22;3835;48.850;8.938;2023-04-01T08:37:11;8.80;99.90
7588;DHT22;3835;48.850;8.938;2023-04-01T08:39:43;8.90;99.90
7588;DHT22;3835;48.850;8.938;2023-04-01T08:42:32;8.80;99.90
7588;DHT22;3835;48.850;8.938;2023-04-01T08:45:20;9.00;99.90
7588;DHT22;3835;48.850;8.938;2023-04-01T08:48:19;9.00;99.90
7588;DHT22;3835;48.850;8.938;2023-04-01T08:51:04;8.90;99.90
7588;DHT22;3835;48.850;8.938;2023-04-01T08:53:50;9.10;99.90
7588;DHT22;3835;48.850;8.938;2023-04-01T08:56:27;9.10;99.90
7588;DHT22;3835;48.850;8.938;2023-04-01T08:59:22;9.20;99.90
7588;DHT22;3835;48.850;8.938;2023-04-01T09:02:02;9.50;99.90
7588;DHT22;3835;48.850;8.938;2023-04-01T09:04:57;9.80;99.90
7588;DHT22;3835;48.850;8.938;2023-04-01T09:07:36;10.20;99.90
7588;DHT22;3835;48.850;8.938;2023-04-01T09:10:41;10.60;99.90
7588;DHT22;3835;48.850;8.938;2023-04-01T09:13:23;11.00;99.90
7588;DHT22;3835;48.850;8.938;2023-04-01T09:16:11;11.20;99.90
7588;DHT22;3835;48.850;8.938;2023-04-01T09:19:10;11.30;99.90
7588;DHT22;3835;48.850;8.938;2023-04-01T09:24:52;11.10;99.90
7588;DHT22;3835;48.850;8.938;2023-04-01T09:27:27;10.90;99.90
7588;DHT22;3835;48.850;8.938;2023-04-01T09:33:49;10.50;99.90
7588;DHT22;3835;48.850;8.938;2023-04-01T09:36:38;10.70;99.90
7588;DHT22;3835;48.850;8.938;2023-04-01T09:39:20;10.50;99.90
7588;DHT22;3835;48.850;8.938;2023-04-01T09:42:03;10.30;99.90
7588;DHT22;3835;48.850;8.938;2023-04-01T09:44:34;10.40;99.90
7588;DHT22;3835;48.850;8.938;2023-04-01T09:47:16;10.40;99.90
7588;DHT22;3835;48.850;8.938;2023-04-01T09:50:14;10.40;99.90
7588;DHT22;3835;48.850;8.938;2023-04-01T09:52:49;10.30;99.90
7588;DHT22;3835;48.850;8.938;2023-04-01T09:55:49;10.30;99.90
7588;DHT22;3835;48.850;8.938;2023-04-01T09:58:47;10.40;99.90
7588;DHT22;3835;48.850;8.938;2023-04-01T10:01:41;10.50;99.90
7588;DHT22;3835;48.850;8.938;2023-04-01T10:10:50;11.20;99.90
7588;DHT22;3835;48.850;8.938;2023-04-01T10:13:47;11.80;99.90
7588;DHT22;3835;48.850;8.938;2023-04-01T10:16:44;11.70;99.90
7588;DHT22;3835;48.850;8.938;2023-04-01T10:19:35;11.50;99.90
7588;DHT22;3835;48.850;8.938;2023-04-01T10:22:20;11.50;99.90
7588;DHT22;3835;48.850;8.938;2023-04-01T10:28:13;11.20;99.90
7588;DHT22;3835;48.850;8.938;2023-04-01T10:34:05;11.00;99.90
7588;DHT22;3835;48.850;8.938;2023-04-01T10:36:52;10.90;99.90
7588;DHT22;3835;48.850;8.938;2023-04-01T10:39:56;10.80;99.90
7588;DHT22;3835;48.850;8.938;2023-04-01T10:43:08;10.80;99.90
7588;DHT22;3835;48.850;8.938;2023-04-01T10:46:04;10.80;99.90
7588;DHT22;3835;48.850;8.938;2023-04-01T10:49:10;11.00;99.90
7588;DHT22;3835;48.850;8.938;2023-04-01T10:52:07;11.10;99.90
7588;DHT22;3835;48.850;8.938;2023-04-01T10:54:45;11.20;99.90
7588;DHT22;3835;48.850;8.938;2023-04-01T11:00:32;11.60;99.90
7588;DHT22;3835;48.850;8.938;2023-04-01T11:03:46;11.80;99.90
7588;DHT22;3835;48.850;8.938;2023-04-01T11:13:02;11.70;99.90
7588;DHT22;3835;48.850;8.938;2023-04-01T11:21:50;12.00;99.90
7588;DHT22;3835;48.850;8.938;2023-04-01T11:24:36;12.10;99.90
7588;DHT22;3835;48.850;8.938;2023-04-01T11:27:21;12.30;99.90
7588;DHT22;3835;48.850;8.938;2023-04-01T11:30:07;12.50;99.90
7588;DHT22;3835;48.850;8.938;2023-04-01T11:32:46;12.50;99.90
7588;DHT22;3835;48.850;8.938;2023-04-01T11:35:43;12.50;99.90
7588;DHT22;3835;48.850;8.938;2023-04-01T11:38:19;12.20;99.90
7588;DHT22;3835;48.850;8.938;2023-04-01T11:40:56;12.10;99.90
7588;DHT22;3835;48.850;8.938;2023-04-01T11:43:31;11.90;99.90
7588;DHT22;3835;48.850;8.938;2023-04-01T11:46:07;11.60;99.90
7588;DHT22;3835;48.850;8.938;2023-04-01T11:48:53;11.30;99.90
7588;DHT22;3835;48.850;8.938;2023-04-01T11:51:51;11.40;99.90
7588;DHT22;3835;48.850;8.938;2023-04-01T11:54:33;11.50;99.90
7588;DHT22;3835;48.850;8.938;2023-04-01T11:57:31;11.50;99.90
7588;DHT22;3835;48.850;8.938;2023-04-01T12:00:13;11.60;99.90
7588;DHT22;3835;48.850;8.938;2023-04-01T12:02:52;11.50;99.90
7588;DHT22;3835;48.850;8.938;2023-04-01T12:05:38;11.50;99.90
7588;DHT22;3835;48.850;8.938;2023-04-01T12:08:15;11.70;99.90
7588;DHT22;3835;48.850;8.938;2023-04-01T12:10:49;11.70;99.90
7588;DHT22;3835;48.850;8.938;2023-04-01T12:13:27;11.70;99.90
7588;DHT22;3835;48.850;8.938;2023-04-01T12:16:09;11.90;99.90
7588;DHT22;3835;48.850;8.938;2023-04-01T12:18:43;12.20;99.90
7588;DHT22;3835;48.850;8.938;2023-04-01T12:21:24;12.20;99.90
7588;DHT22;3835;48.850;8.938;2023-04-01T12:27:02;12.20;99.90
7588;DHT22;3835;48.850;8.938;2023-04-01T12:29:49;12.30;99.90
7588;DHT22;3835;48.850;8.938;2023-04-01T12:32:28;12.30;99.90
7588;DHT22;3835;48.850;8.938;2023-04-01T12:35:13;12.30;99.90
7588;DHT22;3835;48.850;8.938;2023-04-01T12:37:50;12.10;99.90
7588;DHT22;3835;48.850;8.938;2023-04-01T12:40:43;12.20;99.90
7588;DHT22;3835;48.850;8.938;2023-04-01T12:43:27;11.90;99.90
7588;DHT22;3835;48.850;8.938;2023-04-01T12:46:03;11.40;99.90
7588;DHT22;3835;48.850;8.938;2023-04-01T12:51:45;11.60;99.90
7588;DHT22;3835;48.850;8.938;2023-04-01T12:54:44;11.80;99.90
7588;DHT22;3835;48.850;8.938;2023-04-01T12:57:27;11.90;99.90
7588;DHT22;3835;48.850;8.938;2023-04-01T13:00:11;11.70;99.90
7588;DHT22;3835;48.850;8.938;2023-04-01T13:02:58;11.50;99.90
7588;DHT22;3835;48.850;8.938;2023-04-01T13:05:56;11.30;99.90
7588;DHT22;3835;48.850;8.938;2023-04-01T13:08:37;11.10;99.90
7588;DHT22;3835;48.850;8.938;2023-04-01T13:11:09;11.30;99.90
7588;DHT22;3835;48.850;8.938;2023-04-01T13:13:50;11.50;99.90
7588;DHT22;3835;48.850;8.938;2023-04-01T13:16:24;11.60;99.90
7588;DHT22;3835;48.850;8.938;2023-04-01T13:18:57;11.80;99.90
7588;DHT22;3835;48.850;8.938;2023-04-01T13:21:33;11.80;99.90
7588;DHT22;3835;48.850;8.938;2023-04-01T13:24:09;11.70;99.90
7588;DHT22;3835;48.850;8.938;2023-04-01T13:26:49;12.30;99.90
7588;DHT22;3835;48.850;8.938;2023-04-01T13:29:21;12.30;99.90
7588;DHT22;3835;48.850;8.938;2023-04-01T13:32:00;12.30;99.90
7588;DHT22;3835;48.850;8.938;2023-04-01T13:34:38;12.60;99.90
7588;DHT22;3835;48.850;8.938;2023-04-01T13:37:24;12.50;99.90
7588;DHT22;3835;48.850;8.938;2023-04-01T13:40:12;12.40;99.90
7588;DHT22;3835;48.850;8.938;2023-04-01T13:42:45;12.20;99.90
7588;DHT22;3835;48.850;8.938;2023-04-01T13:45:15;11.60;99.90
7588;DHT22;3835;48.850;8.938;2023-04-01T13:47:58;11.50;99.90
7588;DHT22;3835;48.850;8.938;2023-04-01T13:50:46;11.70;99.90
7588;DHT22;3835;48.850;8.938;2023-04-01T13:56:24;11.70;99.90
7588;DHT22;3835;48.850;8.938;2023-04-01T13:59:16;11.60;99.90
7588;DHT22;3835;48.850;8.938;2023-04-01T14:01:52;11.30;99.90
7588;DHT22;3835;48.850;8.938;2023-04-01T14:04:41;11.50;99.90
7588;DHT22;3835;48.850;8.938;2023-04-01T14:07:32;11.60;99.90
7588;DHT22;3835;48.850;8.938;2023-04-01T14:10:18;11.30;99.90
7588;DHT22;3835;48.850;8.938;2023-04-01T14:12:54;10.80;99.90
7588;DHT22;3835;48.850;8.938;2023-04-01T14:15:41;10.70;99.90
7588;DHT22;3835;48.850;8.938;2023-04-01T14:18:25;10.80;99.90
7588;DHT22;3835;48.850;8.938;2023-04-01T14:21:07;10.70;99.90
7588;DHT22;3835;48.850;8.938;2023-04-01T14:27:08;10.60;99.90
7588;DHT22;3835;48.850;8.938;2023-04-01T14:29:44;10.60;99.90
7588;DHT22;3835;48.850;8.938;2023-04-01T14:32:22;10.60;99.90
7588;DHT22;3835;48.850;8.938;2023-04-01T14:35:01;10.50;99.90
7588;DHT22;3835;48.850;8.938;2023-04-01T14:37:55;10.50;99.90
7588;DHT22;3835;48.850;8.938;2023-04-01T14:40:28;10.60;99.90
7588;DHT22;3835;48.850;8.938;2023-04-01T14:43:20;10.50;99.90
7588;DHT22;3835;48.850;8.938;2023-04-01T14:46:12;10.70;99.90
7588;DHT22;3835;48.850;8.938;2023-04-01T14:48:50;11.00;99.90
7588;DHT22;3835;48.850;8.938;2023-04-01T14:51:22;10.90;99.90
7588;DHT22;3835;48.850;8.938;2023-04-01T14:54:00;10.70;99.90
7588;DHT22;3835;48.850;8.938;2023-04-01T14:56:47;10.70;99.90
7588;DHT22;3835;48.850;8.938;2023-04-01T14:59:25;10.80;99.90
7588;DHT22;3835;48.850;8.938;2023-04-01T15:01:59;10.90;99.90
7588;DHT22;3835;48.850;8.938;2023-04-01T15:04:55;10.90;99.90
7588;DHT22;3835;48.850;8.938;2023-04-01T15:11:12;11.10;99.90
7588;DHT22;3835;48.850;8.938;2023-04-01T15:13:50;11.20;99.90
7588;DHT22;3835;48.850;8.938;2023-04-01T15:16:25;11.20;99.90
7588;DHT22;3835;48.850;8.938;2023-04-01T15:19:01;10.90;99.90
7588;DHT22;3835;48.850;8.938;2023-04-01T15:21:40;10.90;99.90
7588;DHT22;3835;48.850;8.938;2023-04-01T15:24:16;10.50;99.90
7588;DHT22;3835;48.850;8.938;2023-04-01T15:26:59;10.50;99.90
7588;DHT22;3835;48.850;8.938;2023-04-01T15:29:37;10.60;99.90
7588;DHT22;3835;48.850;8.938;2023-04-01T15:32:16;10.80;99.90
7588;DHT22;3835;48.850;8.938;2023-04-01T15:34:49;10.80;99.90
7588;DHT22;3835;48.850;8.938;2023-04-01T15:37:21;10.70;99.90
7588;DHT22;3835;48.850;8.938;2023-04-01T15:39:59;10.60;99.90
7588;DHT22;3835;48.850;8.938;2023-04-01T15:42:42;10.60;99.90
7588;DHT22;3835;48.850;8.938;2023-04-01T15:45:17;10.60;99.90
7588;DHT22;3835;48.850;8.938;2023-04-01T15:47:58;10.60;99.90
7588;DHT22;3835;48.850;8.938;2023-04-01T15:50:50;10.60;99.90
7588;DHT22;3835;48.850;8.938;2023-04-01T15:53:37;10.50;99.90
7588;DHT22;3835;48.850;8.938;2023-04-01T15:56:19;10.50;99.90
7588;DHT22;3835;48.850;8.938;2023-04-01T15:59:01;10.30;99.90
7588;DHT22;3835;48.850;8.938;2023-04-01T16:01:38;10.30;99.90
7588;DHT22;3835;48.850;8.938;2023-04-01T16:04:22;10.30;99.90
7588;DHT22;3835;48.850;8.938;2023-04-01T16:07:03;10.30;99.90
7588;DHT22;3835;48.850;8.938;2023-04-01T16:09:43;10.30;99.90
7588;DHT22;3835;48.850;8.938;2023-04-01T16:12:17;10.20;99.90
7588;DHT22;3835;48.850;8.938;2023-04-01T16:14:56;10.20;99.90
7588;DHT22;3835;48.850;8.938;2023-04-01T16:17:41;10.00;99.90
7588;DHT22;3835;48.850;8.938;2023-04-01T16:20:18;10.00;99.90
7588;DHT22;3835;48.850;8.938;2023-04-01T16:22:53;9.90;99.90
7588;DHT22;3835;48.850;8.938;2023-04-01T16:25:29;9.80;99.90
7588;DHT22;3835;48.850;8.938;2023-04-01T16:28:09;9.60;99.90
7588;DHT22;3835;48.850;8.938;2023-04-01T16:30:44;9.70;99.90
7588;DHT22;3835;48.850;8.938;2023-04-01T16:33:20;9.70;99.90
7588;DHT22;3835;48.850;8.938;2023-04-01T16:35:53;9.70;99.90
7588;DHT22;3835;48.850;8.938;2023-04-01T16:38:26;9.60;99.90
7588;DHT22;3835;48.850;8.938;2023-04-01T16:41:07;9.60;99.90
7588;DHT22;3835;48.850;8.938;2023-04-01T16:43:40;9.60;99.90
7588;DHT22;3835;48.850;8.938;2023-04-01T16:46:33;9.60;99.90
7588;DHT22;3835;48.850;8.938;2023-04-01T16:49:13;9.60;99.90
7588;DHT22;3835;48.850;8.938;2023-04-01T16:51:46;9.70;99.90
7588;DHT22;3835;48.850;8.938;2023-04-01T16:54:19;9.70;99.90
7588;DHT22;3835;48.850;8.938;2023-04-01T16:56:55;9.70;99.90
7588;DHT22;3835;48.850;8.938;2023-04-01T16:59:27;9.70;99.90
7588;DHT22;3835;48.850;8.938;2023-04-01T17:02:01;9.70;99.90
7588;DHT22;3835;48.850;8.938;2023-04-01T17:04:32;9.70;99.90
7588;DHT22;3835;48.850;8.938;2023-04-01T17:07:10;9.60;99.90
7588;DHT22;3835;48.850;8.938;2023-04-01T17:10:02;9.60;99.90
7588;DHT22;3835;48.850;8.938;2023-04-01T17:12:36;9.60;99.90
7588;DHT22;3835;48.850;8.938;2023-04-01T17:15:12;9.60;99.90
7588;DHT22;3835;48.850;8.938;2023-04-01T17:17:48;9.60;99.90
7588;DHT22;3835;48.850;8.938;2023-04-01T17:20:30;9.60;99.90
7588;DHT22;3835;48.850;8.938;2023-04-01T17:23:12;9.60;99.90
7588;DHT22;3835;48.850;8.938;2023-04-01T17:28:46;9.50;99.90
7588;DHT22;3835;48.850;8.938;2023-04-01T17:31:26;9.50;99.90
7588;DHT22;3835;48.850;8.938;2023-04-01T17:34:11;9.40;99.90
7588;DHT22;3835;48.850;8.938;2023-04-01T17:36:54;9.30;99.90
7588;DHT22;3835;48.850;8.938;2023-04-01T17:39:37;9.30;99.90
7588;DHT22;3835;48.850;8.938;2023-04-01T17:42:15;9.30;99.90
7588;DHT22;3835;48.850;8.938;2023-04-01T17:44:52;9.10;99.90
7588;DHT22;3835;48.850;8.938;2023-04-01T17:47:31;9.00;99.90
7588;DHT22;3835;48.850;8.938;2023-04-01T17:50:10;9.00;99.90
7588;DHT22;3835;48.850;8.938;2023-04-01T17:52:43;8.90;99.90
7588;DHT22;3835;48.850;8.938;2023-04-01T17:55:39;8.80;99.90
7588;DHT22;3835;48.850;8.938;2023-04-01T17:58:14;8.60;99.90
7588;DHT22;3835;48.850;8.938;2023-04-01T18:00:51;8.60;99.90
7588;DHT22;3835;48.850;8.938;2023-04-01T18:03:42;8.50;99.90
7588;DHT22;3835;48.850;8.938;2023-04-01T18:06:16;8.40;99.90
7588;DHT22;3835;48.850;8.938;2023-04-01T18:08:56;8.40;99.90
7588;DHT22;3835;48.850;8.938;2023-04-01T18:11:34;8.40;99.90
7588;DHT22;3835;48.850;8.938;2023-04-01T18:14:29;8.30;99.90
7588;DHT22;3835;48.850;8.938;2023-04-01T18:17:23;8.30;99.90
7588;DHT22;3835;48.850;8.938;2023-04-01T18:20:07;8.20;99.90